createdAt,value
2019-02-28T00:00:17.431Z,49.61
2019-02-28T00:02:44.301Z,49.65
2019-02-28T00:05:11.089Z,49.60
2019-02-28T00:07:37.949Z,49.85
2019-02-28T00:10:08.431Z,49.84
2019-02-28T00:12:35.161Z,50.22
2019-02-28T00:15:04.630Z,49.79
2019-02-28T00:17:31.398Z,49.67
2019-02-28T00:20:00.353Z,50.20
2019-02-28T00:22:27.295Z,50.36
2019-02-28T00:24:54.401Z,50.39
2019-02-28T00:27:22.164Z,50.65
2019-02-28T00:29:49.122Z,51.11
2019-02-28T00:32:16.013Z,51.72
2019-02-28T00:34:42.859Z,52.14
2019-02-28T00:37:10.098Z,51.99
2019-02-28T00:39:37.312Z,51.93
2019-02-28T00:42:04.077Z,51.93
2019-02-28T00:44:31.424Z,52.84
2019-02-28T00:46:58.418Z,52.63
2019-02-28T00:49:27.915Z,52.42
2019-02-28T00:51:54.885Z,52.25
2019-02-28T00:54:21.612Z,51.71
2019-02-28T00:56:52.530Z,51.60
2019-02-28T00:59:17.210Z,51.39
2019-02-28T01:01:47.057Z,51.48
2019-02-28T01:04:14.249Z,51.51
2019-02-28T01:06:41.890Z,51.11
2019-02-28T01:09:11.247Z,51.77
2019-02-28T01:11:38.123Z,51.89
2019-02-28T01:14:05.033Z,51.85
2019-02-28T01:16:33.741Z,51.25
2019-02-28T01:19:00.888Z,50.90
2019-02-28T01:21:27.770Z,51.07
2019-02-28T01:23:54.546Z,51.02
2019-02-28T01:26:22.063Z,50.94
2019-02-28T01:28:48.801Z,50.94
2019-02-28T01:31:16.042Z,51.06
2019-02-28T01:33:43.365Z,51.94
2019-02-28T01:36:12.297Z,52.91
2019-02-28T01:38:39.203Z,53.11
2019-02-28T01:41:08.364Z,53.30
2019-02-28T01:43:34.915Z,52.79
2019-02-28T01:46:01.748Z,52.49
2019-02-28T01:48:28.690Z,52.68
2019-02-28T01:50:55.431Z,53.54
2019-02-28T01:53:22.191Z,53.24
2019-02-28T01:55:51.878Z,52.76
2019-02-28T01:58:18.580Z,53.41
2019-02-28T02:00:45.891Z,54.27
2019-02-28T02:03:12.634Z,54.39
2019-02-28T02:05:42.630Z,53.22
2019-02-28T02:08:09.741Z,53.11
2019-02-28T02:10:36.819Z,53.20
2019-02-28T02:13:04.341Z,52.24
2019-02-28T02:15:31.448Z,52.54
2019-02-28T02:17:58.201Z,53.36
2019-02-28T02:20:26.239Z,54.21
2019-02-28T02:22:53.694Z,55.15
2019-02-28T02:25:21.209Z,54.17
2019-02-28T02:27:52.773Z,53.85
2019-02-28T02:30:23.438Z,53.44
2019-02-28T02:32:50.310Z,53.38
2019-02-28T02:35:17.110Z,53.91
2019-02-28T02:37:44.760Z,53.56
2019-02-28T02:40:14.225Z,53.43
2019-02-28T02:42:47.200Z,52.87
2019-02-28T02:45:12.768Z,52.09
2019-02-28T02:47:39.715Z,52.34
2019-02-28T02:50:10.991Z,53.43
2019-02-28T02:52:37.854Z,53.55
2019-02-28T02:55:06.133Z,54.09
2019-02-28T02:57:33.191Z,54.41
2019-02-28T03:00:00.062Z,54.55
2019-02-28T03:02:28.671Z,54.15
2019-02-28T03:04:58.525Z,54.49
2019-02-28T03:07:25.022Z,54.58
2019-02-28T03:09:52.358Z,54.33
2019-02-28T03:12:19.207Z,54.54
2019-02-28T03:14:48.743Z,54.37
2019-02-28T03:17:17.777Z,55.01
2019-02-28T03:19:44.863Z,54.07
2019-02-28T03:22:11.878Z,54.40
2019-02-28T03:24:38.833Z,54.69
2019-02-28T03:27:05.600Z,53.90
2019-02-28T03:29:32.370Z,54.14
2019-02-28T03:31:59.949Z,54.24
2019-02-28T03:34:26.995Z,55.27
2019-02-28T03:36:56.915Z,55.52
2019-02-28T03:39:24.510Z,55.97
2019-02-28T03:41:52.994Z,56.64
2019-02-28T03:44:21.526Z,56.13
2019-02-28T03:46:48.945Z,56.31
2019-02-28T03:49:16.359Z,56.51
2019-02-28T03:51:43.094Z,56.70
2019-02-28T03:54:10.060Z,57.39
2019-02-28T03:56:36.803Z,57.26
2019-02-28T03:59:04.073Z,57.12
2019-02-28T04:01:30.947Z,57.24
2019-02-28T04:03:58.149Z,57.17
2019-02-28T04:06:25.373Z,57.45
2019-02-28T04:08:52.217Z,57.40
2019-02-28T04:11:18.991Z,57.91
2019-02-28T04:13:46.140Z,57.57
2019-02-28T04:16:12.995Z,57.41
2019-02-28T04:18:44.143Z,57.93
2019-02-28T04:21:10.162Z,58.17
2019-02-28T04:23:37.506Z,58.51
2019-02-28T04:26:05.002Z,58.50
2019-02-28T04:28:34.783Z,58.43
2019-02-28T04:31:01.929Z,57.85
2019-02-28T04:33:28.730Z,57.83
2019-02-28T04:35:56.798Z,58.15
2019-02-28T04:38:26.096Z,58.81
2019-02-28T04:40:52.886Z,58.55
2019-02-28T04:43:19.599Z,58.31
2019-02-28T04:45:46.796Z,58.42
2019-02-28T04:48:14.628Z,59.21
2019-02-28T04:50:41.496Z,59.36
2019-02-28T04:53:08.264Z,58.58
2019-02-28T04:55:37.163Z,58.73
2019-02-28T04:58:04.059Z,58.33
2019-02-28T05:00:31.179Z,58.16
2019-02-28T05:02:58.238Z,57.80
2019-02-28T05:05:25.193Z,58.12
2019-02-28T05:07:52.026Z,58.67
2019-02-28T05:10:19.294Z,58.99
2019-02-28T05:12:48.000Z,58.87
2019-02-28T05:15:14.949Z,58.05
2019-02-28T05:17:41.710Z,58.69
2019-02-28T05:20:11.050Z,59.15
2019-02-28T05:22:38.574Z,58.62
2019-02-28T05:25:08.075Z,58.98
2019-02-28T05:27:35.348Z,58.76
2019-02-28T05:30:17.947Z,59.10
2019-02-28T05:32:42.475Z,59.46
2019-02-28T05:35:09.640Z,58.35
2019-02-28T05:37:36.460Z,57.53
2019-02-28T05:40:09.105Z,58.29
2019-02-28T05:42:35.843Z,57.83
2019-02-28T05:45:05.046Z,57.98
2019-02-28T05:47:33.106Z,58.26
2019-02-28T05:50:00.459Z,58.41
2019-02-28T05:52:27.314Z,58.84
2019-02-28T05:54:54.549Z,58.69
2019-02-28T05:57:21.336Z,59.13
2019-02-28T05:59:48.184Z,59.06
2019-02-28T06:02:15.337Z,59.89
2019-02-28T06:04:42.250Z,58.88
2019-02-28T06:07:09.472Z,58.99
2019-02-28T06:09:36.356Z,59.31
2019-02-28T06:12:03.314Z,59.48
2019-02-28T06:14:30.126Z,59.49
2019-02-28T06:16:56.976Z,59.41
2019-02-28T06:19:23.709Z,59.24
2019-02-28T06:21:50.516Z,60.42
2019-02-28T06:24:17.254Z,60.53
2019-02-28T06:26:44.252Z,60.83
2019-02-28T06:29:11.024Z,60.27
2019-02-28T06:31:37.812Z,60.26
2019-02-28T06:34:05.636Z,59.79
2019-02-28T06:36:33.738Z,59.41
2019-02-28T06:39:00.504Z,59.27
2019-02-28T06:41:27.793Z,59.10
2019-02-28T06:43:55.318Z,59.13
2019-02-28T06:46:22.101Z,59.44
2019-02-28T06:48:49.202Z,59.57
2019-02-28T06:51:17.554Z,59.47
2019-02-28T06:53:44.580Z,59.48
2019-02-28T06:56:11.689Z,59.66
2019-02-28T06:58:38.631Z,59.53
2019-02-28T07:01:05.581Z,59.23
2019-02-28T07:03:35.120Z,58.63
2019-02-28T07:06:01.978Z,58.77
2019-02-28T07:08:29.077Z,58.53
2019-02-28T07:10:55.961Z,58.29
2019-02-28T07:13:23.171Z,57.96
2019-02-28T07:15:49.947Z,58.41
2019-02-28T07:18:18.832Z,57.90
2019-02-28T07:20:47.163Z,57.53
2019-02-28T07:23:16.538Z,57.40
2019-02-28T07:25:44.324Z,57.70
2019-02-28T07:28:12.041Z,57.90
2019-02-28T07:30:38.817Z,57.63
2019-02-28T07:33:09.549Z,57.48
2019-02-28T07:35:36.808Z,57.82
2019-02-28T07:38:03.224Z,57.00
2019-02-28T07:40:33.117Z,57.11
2019-02-28T07:42:59.922Z,56.98
2019-02-28T07:45:29.684Z,57.14
2019-02-28T07:47:55.650Z,56.93
2019-02-28T07:50:22.815Z,56.86
2019-02-28T07:52:50.195Z,56.77
2019-02-28T07:55:20.304Z,56.76
2019-02-28T07:57:51.181Z,56.60
2019-02-28T08:00:21.862Z,56.30
2019-02-28T08:02:49.034Z,55.96
2019-02-28T08:05:16.452Z,55.76
2019-02-28T08:07:50.932Z,55.25
2019-02-28T08:10:28.519Z,54.94
2019-02-28T08:12:55.656Z,54.65
2019-02-28T08:15:24.585Z,53.96
2019-02-28T08:17:52.135Z,53.50
2019-02-28T08:20:19.756Z,52.71
2019-02-28T08:22:46.551Z,52.14
2019-02-28T08:25:14.820Z,51.60
2019-02-28T08:27:41.921Z,51.05
2019-02-28T08:30:19.223Z,50.34
2019-02-28T08:32:47.072Z,49.73
2019-02-28T08:35:14.202Z,48.07
2019-02-28T08:37:42.457Z,47.43
2019-02-28T08:40:15.793Z,46.74
2019-02-28T08:42:44.865Z,45.95
2019-02-28T08:45:14.346Z,45.56
2019-02-28T08:47:42.164Z,45.26
2019-02-28T08:50:19.138Z,45.06
2019-02-28T08:52:44.730Z,44.64
2019-02-28T08:55:14.349Z,44.08
2019-02-28T08:57:44.127Z,43.67
2019-02-28T09:00:17.995Z,43.53
2019-02-28T09:02:52.200Z,43.24
2019-02-28T09:05:17.256Z,43.13
2019-02-28T09:07:50.743Z,43.12
2019-02-28T09:10:22.989Z,43.06
2019-02-28T09:12:50.651Z,42.84
2019-02-28T09:15:18.238Z,42.91
2019-02-28T09:17:45.838Z,42.78
2019-02-28T09:20:13.887Z,42.60
2019-02-28T09:22:40.748Z,42.37
2019-02-28T09:25:21.977Z,42.24
2019-02-28T09:27:47.472Z,42.17
2019-02-28T09:30:29.633Z,41.91
2019-02-28T09:32:57.780Z,41.72
2019-02-28T09:35:24.685Z,41.57
2019-02-28T09:37:52.025Z,41.41
2019-02-28T09:40:18.912Z,41.54
2019-02-28T09:42:47.848Z,41.47
2019-02-28T09:45:24.042Z,41.21
2019-02-28T09:47:50.731Z,41.17
2019-02-28T09:50:22.437Z,41.03
2019-02-28T09:52:49.186Z,40.85
2019-02-28T09:55:15.990Z,40.44
2019-02-28T09:57:42.767Z,40.20
2019-02-28T10:00:16.491Z,39.89
2019-02-28T10:02:44.047Z,39.43
2019-02-28T10:05:12.310Z,39.49
2019-02-28T10:07:39.171Z,39.65
2019-02-28T10:10:20.873Z,39.26
2019-02-28T10:12:47.206Z,38.94
2019-02-28T10:15:21.466Z,38.71
2019-02-28T10:17:48.303Z,38.45
2019-02-28T10:20:34.675Z,38.02
2019-02-28T10:23:01.649Z,37.92
2019-02-28T10:25:28.631Z,38.13
2019-02-28T10:28:01.657Z,38.25
2019-02-28T10:30:31.676Z,37.89
2019-02-28T10:32:54.897Z,37.69
2019-02-28T10:35:22.171Z,37.40
2019-02-28T10:37:49.126Z,36.75
2019-02-28T10:40:28.033Z,36.50
2019-02-28T10:42:54.954Z,35.91
2019-02-28T10:45:22.860Z,35.90
2019-02-28T10:47:51.659Z,36.13
2019-02-28T10:50:34.536Z,36.54
2019-02-28T10:53:05.588Z,36.88
2019-02-28T10:55:34.008Z,37.04
2019-02-28T10:58:06.150Z,37.22
2019-02-28T11:00:42.328Z,37.28
2019-02-28T11:03:09.381Z,37.30
2019-02-28T11:05:40.390Z,37.39
2019-02-28T11:08:12.975Z,37.19
2019-02-28T11:10:40.246Z,36.37
2019-02-28T11:13:12.251Z,35.31
2019-02-28T11:15:39.359Z,34.88
2019-02-28T11:18:09.662Z,34.81
2019-02-28T11:20:35.819Z,34.90
2019-02-28T11:23:03.083Z,34.77
2019-02-28T11:25:34.553Z,35.00
2019-02-28T11:27:59.046Z,35.51
2019-02-28T11:30:27.819Z,35.71
2019-02-28T11:32:54.801Z,35.74
2019-02-28T11:35:24.017Z,35.86
2019-02-28T11:37:51.672Z,35.88
2019-02-28T11:40:21.583Z,35.93
2019-02-28T11:42:50.478Z,36.15
2019-02-28T11:45:35.701Z,36.52
2019-02-28T11:48:12.920Z,36.64
2019-02-28T11:50:42.453Z,36.73
2019-02-28T11:53:09.741Z,36.59
2019-02-28T11:55:37.124Z,36.22
2019-02-28T11:58:04.510Z,35.85
2019-02-28T12:00:38.410Z,35.40
2019-02-28T12:03:05.891Z,34.76
2019-02-28T12:05:33.340Z,34.50
2019-02-28T12:08:00.369Z,33.75
2019-02-28T12:10:28.287Z,32.72
2019-02-28T12:12:56.421Z,31.83
2019-02-28T12:15:33.644Z,30.77
2019-02-28T12:18:04.803Z,29.27
2019-02-28T12:20:32.451Z,28.47
2019-02-28T12:23:01.749Z,28.71
2019-02-28T12:25:29.105Z,28.44
2019-02-28T12:27:59.342Z,27.96
2019-02-28T12:30:32.058Z,28.49
2019-02-28T12:32:59.804Z,28.65
2019-02-28T12:35:27.722Z,29.52
2019-02-28T12:37:55.903Z,29.38
2019-02-28T12:40:34.443Z,28.49
2019-02-28T12:43:08.708Z,27.82
2019-02-28T12:45:39.748Z,26.91
2019-02-28T12:48:07.745Z,26.22
2019-02-28T12:50:35.899Z,26.66
2019-02-28T12:53:03.950Z,27.09
2019-02-28T12:55:38.555Z,26.81
2019-02-28T12:58:04.309Z,26.29
2019-02-28T13:00:40.878Z,28.30
2019-02-28T13:03:10.199Z,29.53
2019-02-28T13:05:37.130Z,28.18
2019-02-28T13:08:05.783Z,27.32
2019-02-28T13:10:34.253Z,26.96
2019-02-28T13:13:06.665Z,26.85
2019-02-28T13:15:38.293Z,26.54
2019-02-28T13:18:09.166Z,26.82
2019-02-28T13:20:37.592Z,26.43
2019-02-28T13:23:05.337Z,26.24
2019-02-28T13:25:33.515Z,26.00
2019-02-28T13:28:01.216Z,26.06
2019-02-28T13:30:28.902Z,26.08
2019-02-28T13:32:56.330Z,25.70
2019-02-28T13:35:32.530Z,25.84
2019-02-28T13:38:00.166Z,26.19
2019-02-28T13:40:28.544Z,26.07
2019-02-28T13:42:56.975Z,26.01
2019-02-28T13:45:25.994Z,26.37
2019-02-28T13:47:53.580Z,25.81
2019-02-28T13:50:27.958Z,25.93
2019-02-28T13:52:55.503Z,25.51
2019-02-28T13:55:24.597Z,26.28
2019-02-28T13:57:51.992Z,26.53
2019-02-28T14:00:22.705Z,26.57
2019-02-28T14:02:53.714Z,26.63
2019-02-28T14:05:21.686Z,26.60
2019-02-28T14:07:49.710Z,26.40
2019-02-28T14:10:19.623Z,26.22
2019-02-28T14:12:47.230Z,26.67
2019-02-28T14:15:25.124Z,27.08
2019-02-28T14:17:53.883Z,26.73
2019-02-28T14:20:24.447Z,27.00
2019-02-28T14:22:50.189Z,27.15
2019-02-28T14:25:18.161Z,27.28
2019-02-28T14:27:45.360Z,27.85
2019-02-28T14:30:14.325Z,28.10
2019-02-28T14:32:42.319Z,28.13
2019-02-28T14:35:12.843Z,29.13
2019-02-28T14:37:39.647Z,29.51
2019-02-28T14:40:14.586Z,30.61
2019-02-28T14:42:43.510Z,30.88
2019-02-28T14:45:42.741Z,31.43
2019-02-28T14:48:08.891Z,32.07
2019-02-28T14:50:35.945Z,32.95
2019-02-28T14:53:02.893Z,33.13
2019-02-28T14:55:34.183Z,33.15
2019-02-28T14:58:05.853Z,33.35
2019-02-28T15:00:35.340Z,33.40
2019-02-28T15:03:03.915Z,33.58
2019-02-28T15:05:37.582Z,33.77
2019-02-28T15:08:04.478Z,33.96
2019-02-28T15:10:39.110Z,34.30
2019-02-28T15:13:08.727Z,34.52
2019-02-28T15:15:37.567Z,34.63
2019-02-28T15:18:04.392Z,34.83
2019-02-28T15:20:32.859Z,34.87
2019-02-28T15:23:03.207Z,35.08
2019-02-28T15:25:29.992Z,35.38
2019-02-28T15:27:57.442Z,35.81
2019-02-28T15:30:30.488Z,36.08
2019-02-28T15:32:56.770Z,36.69
2019-02-28T15:35:23.549Z,36.67
2019-02-28T15:37:50.732Z,36.89
2019-02-28T15:40:24.723Z,36.98
2019-02-28T15:42:50.997Z,37.53
2019-02-28T15:45:17.983Z,37.46
2019-02-28T15:47:44.761Z,37.89
2019-02-28T15:50:17.158Z,38.00
2019-02-28T15:52:44.143Z,38.02
2019-02-28T15:55:21.153Z,37.79
2019-02-28T15:57:47.980Z,37.96
2019-02-28T16:00:29.885Z,37.97
2019-02-28T16:02:56.884Z,37.99
2019-02-28T16:05:24.126Z,38.20
2019-02-28T16:07:51.153Z,38.41
2019-02-28T16:10:28.527Z,38.34
2019-02-28T16:12:57.090Z,38.37
2019-02-28T16:15:24.042Z,38.29
2019-02-28T16:17:53.307Z,38.31
2019-02-28T16:20:20.524Z,37.84
2019-02-28T16:22:52.152Z,37.45
2019-02-28T16:25:30.873Z,37.23
2019-02-28T16:27:57.823Z,37.17
2019-02-28T16:30:25.027Z,37.13
2019-02-28T16:32:52.054Z,37.07
2019-02-28T16:35:19.233Z,37.03
2019-02-28T16:37:46.047Z,36.95
2019-02-28T16:40:26.166Z,36.94
2019-02-28T16:42:53.995Z,36.93
2019-02-28T16:45:29.302Z,37.10
2019-02-28T16:47:59.555Z,37.28
2019-02-28T16:50:25.069Z,37.41
2019-02-28T16:52:51.855Z,37.61
2019-02-28T16:55:18.696Z,38.01
2019-02-28T16:57:47.053Z,38.22
2019-02-28T17:00:16.094Z,38.28
2019-02-28T17:02:43.264Z,38.71
2019-02-28T17:05:10.836Z,38.73
2019-02-28T17:07:40.492Z,39.10
2019-02-28T17:10:11.657Z,39.26
2019-02-28T17:12:40.416Z,39.57
2019-02-28T17:15:12.092Z,39.83
2019-02-28T17:17:43.471Z,40.11
2019-02-28T17:20:09.895Z,40.35
2019-02-28T17:22:36.764Z,40.95
2019-02-28T17:25:04.938Z,41.43
2019-02-28T17:27:33.561Z,42.01
2019-02-28T17:30:06.201Z,42.59
2019-02-28T17:32:33.219Z,43.32
2019-02-28T17:35:00.400Z,43.81
2019-02-28T17:37:27.392Z,44.34
2019-02-28T17:39:57.044Z,45.62
2019-02-28T17:42:23.885Z,44.82
2019-02-28T17:44:59.735Z,44.99
2019-02-28T17:47:59.571Z,45.34
2019-02-28T17:50:35.017Z,45.27
2019-02-28T17:53:19.109Z,45.71
2019-02-28T17:56:29.482Z,46.14
2019-02-28T17:59:36.058Z,45.86
2019-02-28T18:02:28.777Z,46.08
2019-02-28T18:05:29.871Z,46.08
2019-02-28T18:07:57.815Z,46.31
2019-02-28T18:11:00.883Z,46.19
2019-02-28T18:13:52.250Z,46.29
2019-02-28T18:16:44.065Z,46.18
2019-02-28T18:19:39.496Z,46.25
2019-02-28T18:22:42.105Z,46.13
2019-02-28T18:25:32.746Z,46.16
2019-02-28T18:28:30.070Z,46.29
2019-02-28T18:31:14.148Z,46.00
2019-02-28T18:33:49.138Z,45.82
2019-02-28T18:36:20.265Z,45.80
2019-02-28T18:38:47.020Z,45.80
2019-02-28T18:41:14.100Z,45.89
2019-02-28T18:43:40.824Z,46.44
2019-02-28T18:46:07.765Z,46.72
2019-02-28T18:48:35.096Z,46.84
2019-02-28T18:51:01.887Z,46.99
2019-02-28T18:53:29.047Z,46.88
2019-02-28T18:55:55.908Z,46.73
2019-02-28T18:58:22.685Z,46.86
2019-02-28T19:00:49.883Z,47.00
2019-02-28T19:03:16.616Z,47.28
2019-02-28T19:05:43.783Z,47.41
2019-02-28T19:08:11.050Z,47.34
2019-02-28T19:10:38.622Z,47.83
2019-02-28T19:13:05.397Z,47.56
2019-02-28T19:15:32.181Z,47.61
2019-02-28T19:17:58.918Z,47.65
2019-02-28T19:20:25.714Z,47.72
2019-02-28T19:22:52.460Z,47.94
2019-02-28T19:25:19.257Z,47.98
2019-02-28T19:27:46.028Z,47.85
2019-02-28T19:30:14.476Z,48.21
2019-02-28T19:32:41.242Z,48.02
2019-02-28T19:35:08.732Z,47.86
2019-02-28T19:37:35.816Z,47.94
2019-02-28T19:40:06.991Z,47.94
2019-02-28T19:42:33.886Z,47.71
2019-02-28T19:45:00.684Z,47.84
2019-02-28T19:47:27.820Z,47.68
2019-02-28T19:49:54.645Z,47.78
2019-02-28T19:52:21.440Z,47.94
2019-02-28T19:54:48.429Z,47.91
2019-02-28T19:57:15.178Z,47.75
2019-02-28T19:59:41.920Z,47.41
2019-02-28T20:02:08.704Z,47.04
2019-02-28T20:04:35.445Z,46.77
2019-02-28T20:07:02.411Z,46.55
2019-02-28T20:09:29.224Z,46.44
2019-02-28T20:11:56.360Z,46.46
2019-02-28T20:14:25.073Z,46.60
2019-02-28T20:16:52.005Z,46.44
2019-02-28T20:19:19.232Z,46.27
2019-02-28T20:21:46.066Z,46.32
2019-02-28T20:24:13.181Z,46.66
2019-02-28T20:26:39.981Z,46.66
2019-02-28T20:29:07.198Z,46.79
2019-02-28T20:31:33.978Z,46.96
2019-02-28T20:34:00.927Z,46.93
2019-02-28T20:36:27.747Z,46.92
2019-02-28T20:38:54.780Z,47.02
2019-02-28T20:41:22.023Z,47.25
2019-02-28T20:43:48.863Z,47.21
2019-02-28T20:46:16.844Z,47.11
2019-02-28T20:48:45.752Z,47.23
2019-02-28T20:51:12.833Z,47.45
2019-02-28T20:53:39.905Z,47.61
2019-02-28T20:56:06.810Z,47.75
2019-02-28T20:58:34.049Z,47.68
2019-02-28T21:01:01.060Z,48.46
2019-02-28T21:03:27.929Z,48.23
2019-02-28T21:05:56.209Z,48.03
2019-02-28T21:08:23.290Z,48.06
2019-02-28T21:10:50.413Z,48.45
2019-02-28T21:13:17.181Z,48.59
2019-02-28T21:15:44.320Z,48.57
2019-02-28T21:18:11.090Z,48.62
2019-02-28T21:20:38.539Z,48.31
2019-02-28T21:23:05.314Z,48.57
2019-02-28T21:25:32.070Z,48.65
2019-02-28T21:27:58.828Z,48.87
2019-02-28T21:30:26.785Z,49.16
2019-02-28T21:32:53.587Z,49.25
2019-02-28T21:35:20.441Z,49.26
2019-02-28T21:37:47.323Z,49.99
2019-02-28T21:40:16.858Z,49.73
2019-02-28T21:42:43.796Z,49.47
2019-02-28T21:45:23.246Z,49.68
2019-02-28T21:47:50.059Z,49.76
2019-02-28T21:50:17.044Z,49.87
2019-02-28T21:52:44.101Z,50.14
2019-02-28T21:55:13.557Z,50.71
2019-02-28T21:57:40.297Z,50.58
2019-02-28T22:00:11.780Z,50.84
2019-02-28T22:02:38.505Z,51.07
2019-02-28T22:05:12.171Z,51.19
2019-02-28T22:07:42.098Z,51.21
2019-02-28T22:10:15.361Z,53.21
2019-02-28T22:12:42.200Z,51.18
2019-02-28T22:15:21.540Z,51.35
2019-02-28T22:17:48.742Z,51.57
2019-02-28T22:20:15.670Z,52.80
2019-02-28T22:22:42.694Z,51.89
2019-02-28T22:25:14.763Z,52.02
2019-02-28T22:27:41.520Z,52.04
2019-02-28T22:30:27.226Z,52.35
2019-02-28T22:32:55.764Z,53.00
2019-02-28T22:35:24.436Z,54.97
2019-02-28T22:37:51.802Z,53.02
2019-02-28T22:40:18.535Z,53.00
2019-02-28T22:42:45.464Z,53.68
2019-02-28T22:45:12.244Z,54.17
2019-02-28T22:47:41.804Z,54.84
2019-02-28T22:50:08.577Z,54.68
2019-02-28T22:52:35.684Z,55.27
2019-02-28T22:55:07.283Z,55.43
2019-02-28T22:57:34.099Z,55.75
2019-02-28T23:00:01.314Z,55.83
2019-02-28T23:02:28.779Z,55.88
2019-02-28T23:04:56.327Z,56.21
2019-02-28T23:07:46.603Z,56.27
2019-02-28T23:10:14.044Z,56.27
2019-02-28T23:12:42.091Z,56.47
2019-02-28T23:15:10.111Z,56.87
2019-02-28T23:17:37.992Z,57.61
2019-02-28T23:20:08.053Z,58.54
2019-02-28T23:22:36.096Z,58.86
2019-02-28T23:25:07.053Z,59.29
2019-02-28T23:27:33.841Z,60.44
2019-02-28T23:30:15.077Z,61.31
2019-02-28T23:32:47.586Z,61.23
2019-02-28T23:35:20.469Z,62.61
2019-02-28T23:37:47.244Z,63.94
2019-02-28T23:40:14.231Z,63.91
2019-02-28T23:42:41.129Z,64.73
2019-02-28T23:45:08.181Z,65.32
2019-02-28T23:47:34.942Z,65.81
2019-02-28T23:50:04.943Z,66.25
2019-02-28T23:52:31.650Z,65.83
2019-02-28T23:54:58.429Z,66.13
2019-02-28T23:57:25.170Z,66.01
2019-02-28T23:59:52.022Z,66.27
